sensor_id;sensor_type;location;lat;lon;timestamp;P1;durP1;ratioP1;P2;durP2;ratioP2
53525;SDS011;40551;50.478;19.378;2023-01-15T00:00:13;22.90;;;16.20;;
53525;SDS011;40551;50.478;19.378;2023-01-15T00:03:01;22.40;;;16.50;;
53525;SDS011;40551;50.478;19.378;2023-01-15T00:05:30;22.10;;;15.30;;
53525;SDS011;40551;50.478;19.378;2023-01-15T00:07:58;20.60;;;14.70;;
53525;SDS011;40551;50.478;19.378;2023-01-15T00:10:28;19.70;;;14.30;;
53525;SDS011;40551;50.478;19.378;2023-01-15T00:12:56;21.70;;;15.20;;
53525;SDS011;40551;50.478;19.378;2023-01-15T00:15:24;20.60;;;15.30;;
53525;SDS011;40551;50.478;19.378;2023-01-15T00:17:52;22.10;;;15.60;;
53525;SDS011;40551;50.478;19.378;2023-01-15T00:20:21;24.30;;;15.10;;
53525;SDS011;40551;50.478;19.378;2023-01-15T00:22:49;22.40;;;16.00;;
53525;SDS011;40551;50.478;19.378;2023-01-15T00:25:17;23.40;;;16.50;;
53525;SDS011;40551;50.478;19.378;2023-01-15T00:28:03;25.10;;;17.70;;
53525;SDS011;40551;50.478;19.378;2023-01-15T00:30:32;25.60;;;17.90;;
53525;SDS011;40551;50.478;19.378;2023-01-15T00:33:00;25.90;;;16.80;;
53525;SDS011;40551;50.478;19.378;2023-01-15T00:35:28;23.00;;;16.00;;
53525;SDS011;40551;50.478;19.378;2023-01-15T00:37:57;21.30;;;15.20;;
53525;SDS011;40551;50.478;19.378;2023-01-15T00:40:26;20.50;;;14.30;;
53525;SDS011;40551;50.478;19.378;2023-01-15T00:42:54;19.60;;;13.70;;
53525;SDS011;40551;50.478;19.378;2023-01-15T00:45:22;21.20;;;13.30;;
53525;SDS011;40551;50.478;19.378;2023-01-15T00:47:51;19.50;;;12.40;;
53525;SDS011;40551;50.478;19.378;2023-01-15T00:50:20;19.10;;;11.60;;
53525;SDS011;40551;50.478;19.378;2023-01-15T00:52:48;17.30;;;10.70;;
53525;SDS011;40551;50.478;19.378;2023-01-15T00:55:17;14.30;;;10.20;;
53525;SDS011;40551;50.478;19.378;2023-01-15T00:57:45;14.80;;;9.10;;
53525;SDS011;40551;50.478;19.378;2023-01-15T01:02:43;13.80;;;8.60;;
53525;SDS011;40551;50.478;19.378;2023-01-15T01:05:11;12.20;;;7.80;;
53525;SDS011;40551;50.478;19.378;2023-01-15T01:07:39;13.30;;;8.30;;
53525;SDS011;40551;50.478;19.378;2023-01-15T01:10:08;15.40;;;9.20;;
53525;SDS011;40551;50.478;19.378;2023-01-15T01:12:37;13.30;;;7.90;;
53525;SDS011;40551;50.478;19.378;2023-01-15T01:15:06;12.10;;;7.70;;
53525;SDS011;40551;50.478;19.378;2023-01-15T01:17:36;12.50;;;7.40;;
53525;SDS011;40551;50.478;19.378;2023-01-15T01:20:05;12.70;;;7.20;;
53525;SDS011;40551;50.478;19.378;2023-01-15T01:22:35;12.20;;;7.50;;
53525;SDS011;40551;50.478;19.378;2023-01-15T01:25:04;13.70;;;7.70;;
53525;SDS011;40551;50.478;19.378;2023-01-15T01:27:34;14.20;;;7.40;;
53525;SDS011;40551;50.478;19.378;2023-01-15T01:30:02;13.00;;;7.00;;
53525;SDS011;40551;50.478;19.378;2023-01-15T01:32:32;14.40;;;8.50;;
53525;SDS011;40551;50.478;19.378;2023-01-15T01:35:01;12.90;;;6.50;;
53525;SDS011;40551;50.478;19.378;2023-01-15T01:37:29;12.50;;;6.70;;
53525;SDS011;40551;50.478;19.378;2023-01-15T01:39:58;11.00;;;6.30;;
53525;SDS011;40551;50.478;19.378;2023-01-15T01:42:26;9.90;;;6.20;;
53525;SDS011;40551;50.478;19.378;2023-01-15T01:44:58;11.40;;;5.80;;
53525;SDS011;40551;50.478;19.378;2023-01-15T01:47:30;10.50;;;6.00;;
53525;SDS011;40551;50.478;19.378;2023-01-15T01:50:00;10.50;;;5.60;;
53525;SDS011;40551;50.478;19.378;2023-01-15T01:52:32;11.80;;;5.70;;
53525;SDS011;40551;50.478;19.378;2023-01-15T01:55:07;14.60;;;6.00;;
53525;SDS011;40551;50.478;19.378;2023-01-15T01:57:40;10.00;;;5.50;;
53525;SDS011;40551;50.478;19.378;2023-01-15T02:00:13;10.50;;;6.00;;
53525;SDS011;40551;50.478;19.378;2023-01-15T02:02:43;13.30;;;6.00;;
53525;SDS011;40551;50.478;19.378;2023-01-15T02:05:14;10.90;;;6.30;;
53525;SDS011;40551;50.478;19.378;2023-01-15T02:07:48;11.20;;;6.40;;
53525;SDS011;40551;50.478;19.378;2023-01-15T02:10:16;14.10;;;7.00;;
53525;SDS011;40551;50.478;19.378;2023-01-15T02:12:46;15.30;;;7.70;;
53525;SDS011;40551;50.478;19.378;2023-01-15T02:15:22;15.90;;;8.40;;
53525;SDS011;40551;50.478;19.378;2023-01-15T02:17:58;15.20;;;8.70;;
53525;SDS011;40551;50.478;19.378;2023-01-15T02:20:33;16.90;;;9.70;;
53525;SDS011;40551;50.478;19.378;2023-01-15T02:23:19;15.80;;;8.80;;
53525;SDS011;40551;50.478;19.378;2023-01-15T02:31:48;19.00;;;9.60;;
53525;SDS011;40551;50.478;19.378;2023-01-15T02:34:19;16.30;;;9.00;;
53525;SDS011;40551;50.478;19.378;2023-01-15T02:36:52;16.30;;;8.60;;
53525;SDS011;40551;50.478;19.378;2023-01-15T02:39:26;11.70;;;6.90;;
53525;SDS011;40551;50.478;19.378;2023-01-15T02:41:58;14.30;;;8.10;;
53525;SDS011;40551;50.478;19.378;2023-01-15T02:44:34;12.50;;;6.70;;
53525;SDS011;40551;50.478;19.378;2023-01-15T02:47:10;11.00;;;6.00;;
53525;SDS011;40551;50.478;19.378;2023-01-15T02:49:39;11.80;;;6.00;;
53525;SDS011;40551;50.478;19.378;2023-01-15T02:52:11;10.70;;;5.70;;
53525;SDS011;40551;50.478;19.378;2023-01-15T02:54:45;11.10;;;5.10;;
53525;SDS011;40551;50.478;19.378;2023-01-15T02:57:16;10.50;;;5.40;;
53525;SDS011;40551;50.478;19.378;2023-01-15T02:59:51;9.80;;;5.40;;
53525;SDS011;40551;50.478;19.378;2023-01-15T03:02:24;9.20;;;5.20;;
53525;SDS011;40551;50.478;19.378;2023-01-15T03:04:55;9.60;;;5.30;;
53525;SDS011;40551;50.478;19.378;2023-01-15T03:07:29;10.10;;;5.10;;
53525;SDS011;40551;50.478;19.378;2023-01-15T03:10:04;9.00;;;5.40;;
53525;SDS011;40551;50.478;19.378;2023-01-15T03:12:36;9.30;;;5.10;;
53525;SDS011;40551;50.478;19.378;2023-01-15T03:15:25;8.70;;;5.30;;
53525;SDS011;40551;50.478;19.378;2023-01-15T03:18:13;11.40;;;5.20;;
53525;SDS011;40551;50.478;19.378;2023-01-15T03:20:45;8.50;;;5.00;;
53525;SDS011;40551;50.478;19.378;2023-01-15T03:23:18;9.60;;;5.20;;
53525;SDS011;40551;50.478;19.378;2023-01-15T03:25:53;11.90;;;5.30;;
53525;SDS011;40551;50.478;19.378;2023-01-15T03:28:23;8.90;;;5.20;;
53525;SDS011;40551;50.478;19.378;2023-01-15T03:30:53;11.60;;;5.70;;
53525;SDS011;40551;50.478;19.378;2023-01-15T03:33:22;9.20;;;5.00;;
53525;SDS011;40551;50.478;19.378;2023-01-15T03:35:52;11.00;;;5.00;;
53525;SDS011;40551;50.478;19.378;2023-01-15T03:38:44;9.50;;;5.40;;
53525;SDS011;40551;50.478;19.378;2023-01-15T03:41:19;9.20;;;5.00;;
53525;SDS011;40551;50.478;19.378;2023-01-15T03:43:59;8.70;;;4.80;;
53525;SDS011;40551;50.478;19.378;2023-01-15T03:46:40;12.30;;;4.90;;
53525;SDS011;40551;50.478;19.378;2023-01-15T03:49:20;10.40;;;5.20;;
53525;SDS011;40551;50.478;19.378;2023-01-15T03:51:58;10.00;;;5.10;;
53525;SDS011;40551;50.478;19.378;2023-01-15T03:54:36;9.00;;;4.80;;
53525;SDS011;40551;50.478;19.378;2023-01-15T03:57:12;13.10;;;4.60;;
53525;SDS011;40551;50.478;19.378;2023-01-15T03:59:48;9.80;;;5.10;;
53525;SDS011;40551;50.478;19.378;2023-01-15T04:02:21;9.30;;;4.50;;
53525;SDS011;40551;50.478;19.378;2023-01-15T04:04:51;8.20;;;5.00;;
53525;SDS011;40551;50.478;19.378;2023-01-15T04:07:22;10.00;;;5.20;;
53525;SDS011;40551;50.478;19.378;2023-01-15T04:09:52;12.30;;;5.10;;
53525;SDS011;40551;50.478;19.378;2023-01-15T04:12:20;11.20;;;5.90;;
53525;SDS011;40551;50.478;19.378;2023-01-15T04:14:48;8.20;;;4.90;;
53525;SDS011;40551;50.478;19.378;2023-01-15T04:17:20;10.40;;;5.10;;
53525;SDS011;40551;50.478;19.378;2023-01-15T04:19:48;10.70;;;5.10;;
53525;SDS011;40551;50.478;19.378;2023-01-15T04:22:17;10.20;;;5.60;;
53525;SDS011;40551;50.478;19.378;2023-01-15T04:24:45;9.90;;;4.80;;
53525;SDS011;40551;50.478;19.378;2023-01-15T04:27:14;10.10;;;4.80;;
53525;SDS011;40551;50.478;19.378;2023-01-15T04:29:42;8.60;;;4.40;;
53525;SDS011;40551;50.478;19.378;2023-01-15T04:32:10;13.50;;;5.10;;
53525;SDS011;40551;50.478;19.378;2023-01-15T04:34:38;11.90;;;4.50;;
53525;SDS011;40551;50.478;19.378;2023-01-15T04:37:06;9.10;;;4.40;;
53525;SDS011;40551;50.478;19.378;2023-01-15T04:39:35;11.70;;;4.70;;
53525;SDS011;40551;50.478;19.378;2023-01-15T04:42:03;9.90;;;4.70;;
53525;SDS011;40551;50.478;19.378;2023-01-15T04:44:50;10.40;;;4.30;;
53525;SDS011;40551;50.478;19.378;2023-01-15T04:47:18;9.00;;;4.30;;
53525;SDS011;40551;50.478;19.378;2023-01-15T04:49:46;8.40;;;4.50;;
53525;SDS011;40551;50.478;19.378;2023-01-15T04:52:15;9.70;;;4.60;;
53525;SDS011;40551;50.478;19.378;2023-01-15T04:54:43;9.20;;;5.00;;
53525;SDS011;40551;50.478;19.378;2023-01-15T04:57:11;12.30;;;4.90;;
53525;SDS011;40551;50.478;19.378;2023-01-15T04:59:39;8.80;;;4.90;;
53525;SDS011;40551;50.478;19.378;2023-01-15T05:02:08;11.40;;;5.40;;
53525;SDS011;40551;50.478;19.378;2023-01-15T05:04:36;13.10;;;5.90;;
53525;SDS011;40551;50.478;19.378;2023-01-15T05:07:04;10.90;;;5.50;;
53525;SDS011;40551;50.478;19.378;2023-01-15T05:09:33;8.60;;;5.10;;
53525;SDS011;40551;50.478;19.378;2023-01-15T05:12:01;9.70;;;5.20;;
53525;SDS011;40551;50.478;19.378;2023-01-15T05:14:29;9.20;;;4.40;;
53525;SDS011;40551;50.478;19.378;2023-01-15T05:16:58;7.40;;;4.00;;
53525;SDS011;40551;50.478;19.378;2023-01-15T05:19:26;7.90;;;4.10;;
53525;SDS011;40551;50.478;19.378;2023-01-15T05:21:54;6.90;;;3.80;;
53525;SDS011;40551;50.478;19.378;2023-01-15T05:24:22;12.30;;;3.60;;
53525;SDS011;40551;50.478;19.378;2023-01-15T05:26:50;10.30;;;3.50;;
53525;SDS011;40551;50.478;19.378;2023-01-15T05:29:19;8.20;;;3.70;;
53525;SDS011;40551;50.478;19.378;2023-01-15T05:31:47;9.50;;;3.40;;
53525;SDS011;40551;50.478;19.378;2023-01-15T05:34:15;7.30;;;3.50;;
53525;SDS011;40551;50.478;19.378;2023-01-15T05:36:44;10.20;;;3.40;;
53525;SDS011;40551;50.478;19.378;2023-01-15T05:39:12;7.70;;;3.80;;
53525;SDS011;40551;50.478;19.378;2023-01-15T05:41:40;8.30;;;3.90;;
53525;SDS011;40551;50.478;19.378;2023-01-15T05:44:15;9.60;;;4.10;;
53525;SDS011;40551;50.478;19.378;2023-01-15T05:46:45;8.30;;;4.00;;
53525;SDS011;40551;50.478;19.378;2023-01-15T05:49:15;10.60;;;5.00;;
53525;SDS011;40551;50.478;19.378;2023-01-15T05:51:45;9.90;;;5.20;;
53525;SDS011;40551;50.478;19.378;2023-01-15T05:54:14;10.60;;;4.80;;
53525;SDS011;40551;50.478;19.378;2023-01-15T05:56:43;10.50;;;4.40;;
53525;SDS011;40551;50.478;19.378;2023-01-15T05:59:12;8.30;;;4.40;;
53525;SDS011;40551;50.478;19.378;2023-01-15T06:01:40;7.70;;;4.20;;
53525;SDS011;40551;50.478;19.378;2023-01-15T06:04:09;11.30;;;4.70;;
53525;SDS011;40551;50.478;19.378;2023-01-15T06:06:40;12.50;;;4.80;;
53525;SDS011;40551;50.478;19.378;2023-01-15T06:09:09;14.70;;;5.20;;
53525;SDS011;40551;50.478;19.378;2023-01-15T06:11:37;10.10;;;5.10;;
53525;SDS011;40551;50.478;19.378;2023-01-15T06:14:06;10.50;;;4.90;;
53525;SDS011;40551;50.478;19.378;2023-01-15T06:16:34;9.90;;;4.70;;
53525;SDS011;40551;50.478;19.378;2023-01-15T06:19:03;8.90;;;4.80;;
53525;SDS011;40551;50.478;19.378;2023-01-15T06:21:33;10.30;;;4.80;;
53525;SDS011;40551;50.478;19.378;2023-01-15T06:24:02;9.90;;;4.80;;
53525;SDS011;40551;50.478;19.378;2023-01-15T06:26:32;9.80;;;4.80;;
53525;SDS011;40551;50.478;19.378;2023-01-15T06:29:00;10.80;;;5.00;;
53525;SDS011;40551;50.478;19.378;2023-01-15T06:31:28;10.20;;;4.40;;
53525;SDS011;40551;50.478;19.378;2023-01-15T06:33:58;10.20;;;4.80;;
53525;SDS011;40551;50.478;19.378;2023-01-15T06:36:26;10.60;;;5.10;;
53525;SDS011;40551;50.478;19.378;2023-01-15T06:38:55;13.00;;;4.40;;
53525;SDS011;40551;50.478;19.378;2023-01-15T06:41:24;11.20;;;4.50;;
53525;SDS011;40551;50.478;19.378;2023-01-15T06:44:12;8.30;;;4.10;;
53525;SDS011;40551;50.478;19.378;2023-01-15T06:47:01;7.90;;;3.90;;
53525;SDS011;40551;50.478;19.378;2023-01-15T06:49:48;8.00;;;4.00;;
53525;SDS011;40551;50.478;19.378;2023-01-15T06:52:17;8.30;;;4.10;;
53525;SDS011;40551;50.478;19.378;2023-01-15T06:54:45;6.70;;;3.50;;
53525;SDS011;40551;50.478;19.378;2023-01-15T06:57:14;6.90;;;3.70;;
53525;SDS011;40551;50.478;19.378;2023-01-15T06:59:42;8.10;;;3.80;;
53525;SDS011;40551;50.478;19.378;2023-01-15T07:02:10;7.20;;;4.00;;
53525;SDS011;40551;50.478;19.378;2023-01-15T07:04:39;7.00;;;3.70;;
53525;SDS011;40551;50.478;19.378;2023-01-15T07:07:07;7.40;;;3.80;;
53525;SDS011;40551;50.478;19.378;2023-01-15T07:09:35;9.80;;;4.00;;
53525;SDS011;40551;50.478;19.378;2023-01-15T07:12:04;6.80;;;3.90;;
53525;SDS011;40551;50.478;19.378;2023-01-15T07:14:32;9.10;;;5.00;;
53525;SDS011;40551;50.478;19.378;2023-01-15T07:17:01;10.40;;;4.20;;
53525;SDS011;40551;50.478;19.378;2023-01-15T07:19:29;7.10;;;3.90;;
53525;SDS011;40551;50.478;19.378;2023-01-15T07:21:57;7.50;;;4.30;;
53525;SDS011;40551;50.478;19.378;2023-01-15T07:24:26;7.00;;;3.60;;
53525;SDS011;40551;50.478;19.378;2023-01-15T07:26:54;6.70;;;4.00;;
53525;SDS011;40551;50.478;19.378;2023-01-15T07:29:22;8.20;;;4.20;;
53525;SDS011;40551;50.478;19.378;2023-01-15T07:31:51;7.60;;;3.90;;
53525;SDS011;40551;50.478;19.378;2023-01-15T07:34:19;7.90;;;4.20;;
53525;SDS011;40551;50.478;19.378;2023-01-15T07:36:47;8.50;;;4.30;;
53525;SDS011;40551;50.478;19.378;2023-01-15T07:39:15;8.30;;;4.80;;
53525;SDS011;40551;50.478;19.378;2023-01-15T07:41:44;7.80;;;4.30;;
53525;SDS011;40551;50.478;19.378;2023-01-15T07:44:34;7.70;;;3.90;;
53525;SDS011;40551;50.478;19.378;2023-01-15T07:47:20;7.70;;;4.30;;
53525;SDS011;40551;50.478;19.378;2023-01-15T07:50:10;8.90;;;4.20;;
53525;SDS011;40551;50.478;19.378;2023-01-15T07:52:40;8.20;;;3.90;;
53525;SDS011;40551;50.478;19.378;2023-01-15T07:55:09;7.80;;;4.10;;
53525;SDS011;40551;50.478;19.378;2023-01-15T07:57:39;8.30;;;4.10;;
53525;SDS011;40551;50.478;19.378;2023-01-15T08:00:11;11.60;;;4.60;;
53525;SDS011;40551;50.478;19.378;2023-01-15T08:02:42;7.30;;;4.00;;
53525;SDS011;40551;50.478;19.378;2023-01-15T08:05:11;7.40;;;4.20;;
53525;SDS011;40551;50.478;19.378;2023-01-15T08:07:40;7.50;;;4.10;;
53525;SDS011;40551;50.478;19.378;2023-01-15T08:10:10;7.50;;;4.40;;
53525;SDS011;40551;50.478;19.378;2023-01-15T08:12:40;8.90;;;4.20;;
53525;SDS011;40551;50.478;19.378;2023-01-15T08:15:26;9.00;;;4.80;;
53525;SDS011;40551;50.478;19.378;2023-01-15T08:17:58;7.30;;;4.40;;
53525;SDS011;40551;50.478;19.378;2023-01-15T08:20:26;7.80;;;4.40;;
53525;SDS011;40551;50.478;19.378;2023-01-15T08:22:54;7.00;;;3.80;;
53525;SDS011;40551;50.478;19.378;2023-01-15T08:25:24;7.60;;;4.30;;
53525;SDS011;40551;50.478;19.378;2023-01-15T08:27:52;8.00;;;4.20;;
53525;SDS011;40551;50.478;19.378;2023-01-15T08:30:22;7.80;;;4.30;;
53525;SDS011;40551;50.478;19.378;2023-01-15T08:32:51;7.30;;;4.10;;
53525;SDS011;40551;50.478;19.378;2023-01-15T08:35:25;7.80;;;4.00;;
53525;SDS011;40551;50.478;19.378;2023-01-15T08:37:53;7.70;;;3.70;;
53525;SDS011;40551;50.478;19.378;2023-01-15T08:40:21;9.00;;;4.80;;
53525;SDS011;40551;50.478;19.378;2023-01-15T08:42:49;9.10;;;4.30;;
53525;SDS011;40551;50.478;19.378;2023-01-15T08:45:18;8.90;;;4.00;;
53525;SDS011;40551;50.478;19.378;2023-01-15T08:47:46;7.40;;;4.40;;
53525;SDS011;40551;50.478;19.378;2023-01-15T08:50:14;7.60;;;4.00;;
53525;SDS011;40551;50.478;19.378;2023-01-15T08:52:43;7.90;;;4.10;;
53525;SDS011;40551;50.478;19.378;2023-01-15T08:55:11;9.50;;;4.50;;
53525;SDS011;40551;50.478;19.378;2023-01-15T08:57:39;11.00;;;4.30;;
53525;SDS011;40551;50.478;19.378;2023-01-15T09:00:08;8.90;;;4.30;;
53525;SDS011;40551;50.478;19.378;2023-01-15T09:02:38;8.30;;;5.30;;
53525;SDS011;40551;50.478;19.378;2023-01-15T09:05:07;8.20;;;4.20;;
53525;SDS011;40551;50.478;19.378;2023-01-15T09:07:35;10.40;;;4.20;;
53525;SDS011;40551;50.478;19.378;2023-01-15T09:10:05;6.80;;;3.70;;
53525;SDS011;40551;50.478;19.378;2023-01-15T09:12:34;8.20;;;4.40;;
53525;SDS011;40551;50.478;19.378;2023-01-15T09:15:03;8.80;;;4.40;;
53525;SDS011;40551;50.478;19.378;2023-01-15T09:17:32;9.60;;;3.90;;
53525;SDS011;40551;50.478;19.378;2023-01-15T09:20:06;6.80;;;4.30;;
53525;SDS011;40551;50.478;19.378;2023-01-15T09:22:37;6.70;;;3.70;;
53525;SDS011;40551;50.478;19.378;2023-01-15T09:25:06;7.70;;;4.70;;
53525;SDS011;40551;50.478;19.378;2023-01-15T09:27:35;8.10;;;3.90;;
53525;SDS011;40551;50.478;19.378;2023-01-15T09:30:04;7.80;;;4.20;;
53525;SDS011;40551;50.478;19.378;2023-01-15T09:32:40;7.40;;;3.90;;
53525;SDS011;40551;50.478;19.378;2023-01-15T09:35:09;8.50;;;4.10;;
53525;SDS011;40551;50.478;19.378;2023-01-15T09:37:37;7.70;;;4.20;;
53525;SDS011;40551;50.478;19.378;2023-01-15T09:40:06;8.00;;;4.50;;
53525;SDS011;40551;50.478;19.378;2023-01-15T09:42:48;8.30;;;4.50;;
53525;SDS011;40551;50.478;19.378;2023-01-15T09:45:22;8.10;;;4.70;;
53525;SDS011;40551;50.478;19.378;2023-01-15T09:47:56;9.10;;;4.50;;
53525;SDS011;40551;50.478;19.378;2023-01-15T09:50:37;7.70;;;4.40;;
53525;SDS011;40551;50.478;19.378;2023-01-15T09:53:21;9.40;;;4.00;;
53525;SDS011;40551;50.478;19.378;2023-01-15T09:56:20;10.00;;;4.50;;
53525;SDS011;40551;50.478;19.378;2023-01-15T09:58:51;9.60;;;4.50;;
53525;SDS011;40551;50.478;19.378;2023-01-15T10:01:22;9.40;;;4.30;;
53525;SDS011;40551;50.478;19.378;2023-01-15T10:03:55;8.60;;;4.00;;
53525;SDS011;40551;50.478;19.378;2023-01-15T10:06:29;7.60;;;3.70;;
53525;SDS011;40551;50.478;19.378;2023-01-15T10:09:08;7.00;;;3.50;;
53525;SDS011;40551;50.478;19.378;2023-01-15T10:11:42;7.10;;;3.80;;
53525;SDS011;40551;50.478;19.378;2023-01-15T10:14:34;8.50;;;4.20;;
53525;SDS011;40551;50.478;19.378;2023-01-15T10:17:16;8.20;;;3.50;;
53525;SDS011;40551;50.478;19.378;2023-01-15T10:19:48;8.50;;;3.70;;
53525;SDS011;40551;50.478;19.378;2023-01-15T10:22:20;10.50;;;4.30;;
53525;SDS011;40551;50.478;19.378;2023-01-15T10:24:57;7.50;;;4.20;;
53525;SDS011;40551;50.478;19.378;2023-01-15T10:27:27;7.10;;;4.00;;
53525;SDS011;40551;50.478;19.378;2023-01-15T10:30:00;9.50;;;4.40;;
53525;SDS011;40551;50.478;19.378;2023-01-15T10:32:41;9.90;;;4.90;;
53525;SDS011;40551;50.478;19.378;2023-01-15T10:35:36;9.50;;;5.50;;
53525;SDS011;40551;50.478;19.378;2023-01-15T10:38:15;12.10;;;5.10;;
53525;SDS011;40551;50.478;19.378;2023-01-15T10:40:59;13.50;;;5.30;;
53525;SDS011;40551;50.478;19.378;2023-01-15T10:43:40;12.10;;;5.00;;
53525;SDS011;40551;50.478;19.378;2023-01-15T10:46:16;10.70;;;4.60;;
53525;SDS011;40551;50.478;19.378;2023-01-15T10:48:45;8.90;;;4.30;;
53525;SDS011;40551;50.478;19.378;2023-01-15T10:51:18;12.40;;;5.40;;
53525;SDS011;40551;50.478;19.378;2023-01-15T10:56:21;15.80;;;5.80;;
53525;SDS011;40551;50.478;19.378;2023-01-15T11:01:34;12.70;;;5.50;;
53525;SDS011;40551;50.478;19.378;2023-01-15T11:04:03;11.60;;;5.80;;
53525;SDS011;40551;50.478;19.378;2023-01-15T11:06:34;11.70;;;6.10;;
53525;SDS011;40551;50.478;19.378;2023-01-15T11:09:02;14.90;;;6.10;;
53525;SDS011;40551;50.478;19.378;2023-01-15T11:11:39;25.30;;;7.00;;
53525;SDS011;40551;50.478;19.378;2023-01-15T11:14:33;15.00;;;7.50;;
53525;SDS011;40551;50.478;19.378;2023-01-15T11:17:20;13.80;;;6.60;;
53525;SDS011;40551;50.478;19.378;2023-01-15T11:20:13;12.40;;;6.20;;
53525;SDS011;40551;50.478;19.378;2023-01-15T11:22:48;13.40;;;6.40;;
53525;SDS011;40551;50.478;19.378;2023-01-15T11:25:24;13.00;;;6.30;;
53525;SDS011;40551;50.478;19.378;2023-01-15T11:27:54;10.00;;;5.60;;
53525;SDS011;40551;50.478;19.378;2023-01-15T11:30:25;10.00;;;5.50;;
53525;SDS011;40551;50.478;19.378;2023-01-15T11:32:56;11.20;;;5.70;;
53525;SDS011;40551;50.478;19.378;2023-01-15T11:35:26;8.70;;;5.10;;
53525;SDS011;40551;50.478;19.378;2023-01-15T11:38:01;11.00;;;6.10;;
53525;SDS011;40551;50.478;19.378;2023-01-15T11:40:30;9.20;;;5.50;;
53525;SDS011;40551;50.478;19.378;2023-01-15T11:42:59;9.20;;;5.50;;
53525;SDS011;40551;50.478;19.378;2023-01-15T11:45:46;9.30;;;5.30;;
53525;SDS011;40551;50.478;19.378;2023-01-15T11:48:41;12.20;;;4.90;;
53525;SDS011;40551;50.478;19.378;2023-01-15T11:51:30;10.10;;;4.90;;
53525;SDS011;40551;50.478;19.378;2023-01-15T11:54:08;11.50;;;5.30;;
53525;SDS011;40551;50.478;19.378;2023-01-15T11:56:40;8.90;;;4.90;;
53525;SDS011;40551;50.478;19.378;2023-01-15T11:59:11;10.30;;;5.50;;
53525;SDS011;40551;50.478;19.378;2023-01-15T12:01:46;10.00;;;6.30;;
53525;SDS011;40551;50.478;19.378;2023-01-15T12:04:24;13.60;;;6.20;;
53525;SDS011;40551;50.478;19.378;2023-01-15T12:06:56;9.80;;;5.50;;
53525;SDS011;40551;50.478;19.378;2023-01-15T12:09:28;12.30;;;7.00;;
53525;SDS011;40551;50.478;19.378;2023-01-15T12:12:09;11.30;;;6.70;;
53525;SDS011;40551;50.478;19.378;2023-01-15T12:15:00;12.00;;;6.70;;
53525;SDS011;40551;50.478;19.378;2023-01-15T12:17:44;10.00;;;6.10;;
53525;SDS011;40551;50.478;19.378;2023-01-15T12:20:22;11.10;;;6.60;;
53525;SDS011;40551;50.478;19.378;2023-01-15T12:23:00;10.20;;;6.70;;
53525;SDS011;40551;50.478;19.378;2023-01-15T12:25:46;10.00;;;6.30;;
53525;SDS011;40551;50.478;19.378;2023-01-15T12:28:26;10.30;;;5.90;;
53525;SDS011;40551;50.478;19.378;2023-01-15T12:31:00;11.30;;;7.00;;
53525;SDS011;40551;50.478;19.378;2023-01-15T12:33:34;11.20;;;6.40;;
53525;SDS011;40551;50.478;19.378;2023-01-15T12:36:11;10.00;;;6.40;;
53525;SDS011;40551;50.478;19.378;2023-01-15T12:38:46;10.10;;;6.10;;
53525;SDS011;40551;50.478;19.378;2023-01-15T12:41:20;10.10;;;6.70;;
53525;SDS011;40551;50.478;19.378;2023-01-15T12:43:52;10.10;;;6.50;;
53525;SDS011;40551;50.478;19.378;2023-01-15T12:46:42;11.90;;;6.90;;
53525;SDS011;40551;50.478;19.378;2023-01-15T12:49:15;9.20;;;5.80;;
53525;SDS011;40551;50.478;19.378;2023-01-15T12:51:53;10.90;;;6.30;;
53525;SDS011;40551;50.478;19.378;2023-01-15T12:54:27;10.00;;;6.00;;
53525;SDS011;40551;50.478;19.378;2023-01-15T12:57:02;11.30;;;6.70;;
53525;SDS011;40551;50.478;19.378;2023-01-15T12:59:41;10.90;;;5.90;;
53525;SDS011;40551;50.478;19.378;2023-01-15T13:02:16;11.80;;;6.70;;
53525;SDS011;40551;50.478;19.378;2023-01-15T13:04:48;10.70;;;6.30;;
53525;SDS011;40551;50.478;19.378;2023-01-15T13:07:21;11.60;;;6.70;;
53525;SDS011;40551;50.478;19.378;2023-01-15T13:09:57;10.10;;;6.00;;
53525;SDS011;40551;50.478;19.378;2023-01-15T13:12:34;11.50;;;6.30;;
53525;SDS011;40551;50.478;19.378;2023-01-15T13:15:03;9.70;;;6.30;;
53525;SDS011;40551;50.478;19.378;2023-01-15T13:17:35;12.60;;;6.40;;
53525;SDS011;40551;50.478;19.378;2023-01-15T13:20:27;10.10;;;6.50;;
53525;SDS011;40551;50.478;19.378;2023-01-15T13:23:07;11.30;;;6.70;;
53525;SDS011;40551;50.478;19.378;2023-01-15T13:25:43;11.20;;;7.10;;
53525;SDS011;40551;50.478;19.378;2023-01-15T13:31:28;12.10;;;6.40;;
53525;SDS011;40551;50.478;19.378;2023-01-15T13:34:09;11.80;;;6.80;;
53525;SDS011;40551;50.478;19.378;2023-01-15T13:36:51;14.80;;;7.40;;
53525;SDS011;40551;50.478;19.378;2023-01-15T13:41:54;12.20;;;8.10;;
53525;SDS011;40551;50.478;19.378;2023-01-15T13:44:45;14.70;;;8.30;;
53525;SDS011;40551;50.478;19.378;2023-01-15T13:47:17;12.00;;;8.30;;
53525;SDS011;40551;50.478;19.378;2023-01-15T13:49:49;12.30;;;7.90;;
53525;SDS011;40551;50.478;19.378;2023-01-15T13:52:21;14.90;;;9.70;;
53525;SDS011;40551;50.478;19.378;2023-01-15T13:54:54;15.50;;;9.70;;
53525;SDS011;40551;50.478;19.378;2023-01-15T13:57:32;14.10;;;9.60;;
53525;SDS011;40551;50.478;19.378;2023-01-15T14:00:01;15.40;;;10.10;;
53525;SDS011;40551;50.478;19.378;2023-01-15T14:02:38;16.20;;;10.00;;
53525;SDS011;40551;50.478;19.378;2023-01-15T14:05:24;16.40;;;9.70;;
53525;SDS011;40551;50.478;19.378;2023-01-15T14:07:55;14.00;;;9.50;;
53525;SDS011;40551;50.478;19.378;2023-01-15T14:10:31;14.40;;;9.80;;
53525;SDS011;40551;50.478;19.378;2023-01-15T14:13:18;17.20;;;10.50;;
53525;SDS011;40551;50.478;19.378;2023-01-15T14:16:04;17.30;;;10.60;;
53525;SDS011;40551;50.478;19.378;2023-01-15T14:19:00;18.20;;;10.30;;
53525;SDS011;40551;50.478;19.378;2023-01-15T14:21:42;18.50;;;11.80;;
53525;SDS011;40551;50.478;19.378;2023-01-15T14:24:31;19.80;;;11.60;;
53525;SDS011;40551;50.478;19.378;2023-01-15T14:27:38;20.30;;;12.40;;
53525;SDS011;40551;50.478;19.378;2023-01-15T14:30:25;19.80;;;11.60;;
53525;SDS011;40551;50.478;19.378;2023-01-15T14:33:07;21.90;;;12.60;;
53525;SDS011;40551;50.478;19.378;2023-01-15T14:35:44;22.50;;;13.90;;
53525;SDS011;40551;50.478;19.378;2023-01-15T14:38:15;20.20;;;12.50;;
53525;SDS011;40551;50.478;19.378;2023-01-15T14:40:52;17.00;;;11.00;;
53525;SDS011;40551;50.478;19.378;2023-01-15T14:43:26;13.60;;;8.60;;
53525;SDS011;40551;50.478;19.378;2023-01-15T14:45:57;13.10;;;8.00;;
53525;SDS011;40551;50.478;19.378;2023-01-15T14:48:40;12.30;;;7.90;;
53525;SDS011;40551;50.478;19.378;2023-01-15T14:51:09;11.20;;;7.20;;
53525;SDS011;40551;50.478;19.378;2023-01-15T14:53:41;11.00;;;7.30;;
53525;SDS011;40551;50.478;19.378;2023-01-15T14:56:15;10.80;;;7.00;;
53525;SDS011;40551;50.478;19.378;2023-01-15T14:58:49;14.10;;;7.50;;
53525;SDS011;40551;50.478;19.378;2023-01-15T15:01:26;12.90;;;7.20;;
53525;SDS011;40551;50.478;19.378;2023-01-15T15:04:00;10.70;;;6.30;;
53525;SDS011;40551;50.478;19.378;2023-01-15T15:06:42;12.70;;;7.40;;
53525;SDS011;40551;50.478;19.378;2023-01-15T15:09:23;12.30;;;7.50;;
53525;SDS011;40551;50.478;19.378;2023-01-15T15:11:57;11.60;;;7.30;;
53525;SDS011;40551;50.478;19.378;2023-01-15T15:14:46;12.60;;;7.40;;
53525;SDS011;40551;50.478;19.378;2023-01-15T15:17:21;11.40;;;8.00;;
53525;SDS011;40551;50.478;19.378;2023-01-15T15:19:58;10.40;;;6.80;;